Terminal Aerodrome Forecast
Issued by NWS Dallas/Fort Worth, TX

Home | Current Version | Previous Version | Text Only | Print | Product List | Glossary On
Versions: 1 2 3 4 5 6 7 8 9 10 11 12 13 14 15 16 17 18 19 20 21 22 23 24 25 26 27 28 29 30 31 32 33 34
620
FTUS44 KFWD 180901 AAB
TAFDFW
TAF AMD
KDFW 180901Z 1809/1912 35009KT P6SM SCT006 OVC035
      TEMPO 1809/1811 BKN006
     FM181100 02006KT 4SM -DZ BR OVC006
     FM181800 35005KT 3SM BR OVC006=

USA.gov is the U.S. government's official web portal to all federal, state and local government web resources and services.